Burntwood, United Kingdom
Current Conditions -  °F | °C
As of 6:20 AM on Saturday 20 Dec 2014 (Local Time) from EGBB Reporting Station
Scattered Clouds Scattered Clouds  
Wind Chill: 39°   Ceiling: Unl
Heat Index: 45°   Visibility: 6mi
Dew Point: 36°   Wind: 10mph
Humidity: 71%   Direction: 260°W
Pressure: 30.15"   Gusts: NA
Location:  52.68°N, 1.93°W
Report Text: EGBB 200620Z 26009KT 9999 SCT034 07/02 Q1021
Loading
Personal Weather Stations






























Interactive Weather Map New forecast layout! Learn more

10-Day Weather Forecast

Advertisements
Track Severe Weather on mobile